Time;durP1;ratioP1;P1;durP2;ratioP2;P2;SDS_P1;SDS_P2;PMS_P1;PMS_P2;Temp;Humidity;BMP_temperature;BMP_pressure;BME280_temperature;BME280_humidity;BME280_pressure;Samples;Min_cycle;Max_cycle;Signal;HPM_P1;HPM_P2
2023/05/22 00:00:37;;;;;;;5.68;4.35;;;14.10;99.90;;;;;;5023007;28;20033;-82
2023/05/22 00:03:07;;;;;;;4.55;4.03;;;14.00;99.90;;;;;;5014118;28;20029;-83
2023/05/22 00:05:33;;;;;;;5.93;4.78;;;13.90;99.90;;;;;;5022546;28;20037;-82
2023/05/22 00:07:59;;;;;;;8.75;5.50;;;13.80;99.90;;;;;;5025726;28;20030;-82
2023/05/22 00:10:24;;;;;;;8.23;6.07;;;13.90;99.90;;;;;;5026526;28;20502;-83
2023/05/22 00:12:50;;;;;;;9.57;6.40;;;13.90;99.90;;;;;;5021365;28;20037;-83
2023/05/22 00:15:16;;;;;;;9.02;6.50;;;13.90;99.90;;;;;;5021662;28;20022;-82
2023/05/22 00:17:41;;;;;;;11.02;6.72;;;13.90;99.90;;;;;;5031711;28;20030;-82
2023/05/22 00:20:09;;;;;;;10.60;6.97;;;14.00;99.90;;;;;;5027459;28;20674;-82
2023/05/22 00:22:36;;;;;;;8.80;6.32;;;13.80;99.90;;;;;;5028495;28;20010;-83
2023/05/22 00:25:03;;;;;;;12.27;7.10;;;13.80;99.90;;;;;;5028344;28;20029;-81
2023/05/22 00:27:28;;;;;;;10.18;7.00;;;13.80;99.90;;;;;;5030171;28;20030;-81
2023/05/22 00:29:54;;;;;;;10.35;7.32;;;13.80;99.90;;;;;;5020758;28;20052;-81
2023/05/22 00:32:19;;;;;;;12.13;8.65;;;13.80;99.90;;;;;;5028113;28;20258;-81
2023/05/22 00:34:45;;;;;;;11.68;7.05;;;13.20;99.90;;;;;;5028160;28;20021;-82
2023/05/22 00:37:11;;;;;;;8.27;6.68;;;12.70;99.90;;;;;;5026610;28;20018;-82
2023/05/22 00:39:37;;;;;;;6.68;5.88;;;12.30;99.90;;;;;;5030696;28;20085;-82
2023/05/22 00:42:03;;;;;;;7.07;6.38;;;12.20;99.90;;;;;;5034953;28;20022;-81
2023/05/22 00:44:28;;;;;;;10.88;6.88;;;12.40;99.90;;;;;;5034177;28;20062;-82
2023/05/22 00:46:55;;;;;;;6.70;5.72;;;12.50;99.90;;;;;;5033924;28;20061;-82
2023/05/22 00:49:21;;;;;;;9.18;6.18;;;12.70;99.90;;;;;;5033388;28;20030;-81
2023/05/22 00:51:47;;;;;;;10.80;6.95;;;12.70;99.90;;;;;;5030992;28;20053;-81
2023/05/22 00:54:14;;;;;;;9.35;6.72;;;12.50;99.90;;;;;;5030137;28;20060;-81
2023/05/22 00:56:40;;;;;;;8.07;6.07;;;12.40;99.90;;;;;;5030103;28;20034;-81
2023/05/22 00:59:07;;;;;;;10.75;6.80;;;12.50;99.90;;;;;;5036981;28;20082;-81
2023/05/22 01:01:36;;;;;;;10.30;6.80;;;12.50;99.90;;;;;;5033330;28;20081;-81
2023/05/22 01:04:06;;;;;;;9.15;6.10;;;12.70;99.90;;;;;;5034038;28;20034;-81
2023/05/22 01:06:32;;;;;;;8.93;6.68;;;12.80;99.90;;;;;;5028648;28;20033;-82
2023/05/22 01:08:58;;;;;;;10.55;7.90;;;12.90;99.90;;;;;;5029722;28;20021;-81
2023/05/22 01:11:48;;;;;;;10.15;7.07;;;12.90;99.90;;;;;;5027315;28;20194;-82
2023/05/22 01:14:32;;;;;;;10.07;7.28;;;12.90;99.90;;;;;;5026692;28;20076;-83
2023/05/22 01:17:07;;;;;;;8.23;6.57;;;12.90;99.90;;;;;;5026572;28;20026;-82
2023/05/22 01:20:00;;;;;;;6.75;5.85;;;12.90;99.90;;;;;;5030520;28;20026;-82
2023/05/22 01:23:13;;;;;;;7.90;6.45;;;12.90;99.90;;;;;;5033866;28;20101;-82
2023/05/22 01:25:51;;;;;;;9.75;6.63;;;12.80;99.90;;;;;;4966748;28;20058;-83
2023/05/22 01:28:36;;;;;;;9.85;6.05;;;12.40;99.90;;;;;;5026925;28;20069;-83
2023/05/22 01:31:03;;;;;;;9.25;6.18;;;12.40;99.90;;;;;;5022625;28;20033;-82
2023/05/22 01:33:35;;;;;;;6.32;5.55;;;12.50;99.90;;;;;;5022000;28;20046;-81
2023/05/22 01:36:02;;;;;;;9.35;6.35;;;12.60;99.90;;;;;;5023368;28;20042;-82
2023/05/22 01:38:29;;;;;;;10.77;6.53;;;12.60;99.90;;;;;;5024068;28;20037;-82
2023/05/22 01:41:00;;;;;;;9.70;7.00;;;12.60;99.90;;;;;;5012915;28;20052;-82
2023/05/22 01:43:29;;;;;;;10.75;7.03;;;12.60;99.90;;;;;;4988153;28;20438;-82
2023/05/22 01:45:55;;;;;;;9.23;6.75;;;12.60;99.90;;;;;;5000789;28;20042;-82
2023/05/22 01:48:42;;;;;;;8.25;6.43;;;12.50;99.90;;;;;;5010013;28;20041;-82
2023/05/22 01:51:26;;;;;;;9.18;7.03;;;12.60;99.90;;;;;;4980165;28;20049;-82
2023/05/22 01:54:13;;;;;;;8.18;5.75;;;12.60;99.90;;;;;;5002904;28;20038;-81
2023/05/22 01:56:55;;;;;;;8.82;6.28;;;12.60;99.90;;;;;;5023285;28;20049;-82
2023/05/22 02:00:32;;;;;;;9.43;7.47;;;12.60;99.90;;;;;;5003356;28;20041;-82
2023/05/22 02:02:34;;;;;;;9.45;7.40;;;12.60;99.90;;;;;;4991310;28;20042;-82
2023/05/22 02:05:31;;;;;;;;;;;;;;;;;;;;;
2023/05/22 02:08:33;;;;;;;;;;;;;;;;;;;;;
2023/05/22 02:11:03;;;;;;;7.82;6.18;;;12.20;99.90;;;;;;4987526;28;20117;-81
2023/05/22 02:13:29;;;;;;;8.75;6.65;;;12.20;99.90;;;;;;5012797;28;20585;-82
2023/05/22 02:15:58;;;;;;;12.38;7.78;;;12.20;99.90;;;;;;5007675;28;20136;-83
2023/05/22 02:18:30;;;;;;;9.23;6.50;;;12.20;99.90;;;;;;5017868;28;20564;-82
2023/05/22 02:20:57;;;;;;;7.63;6.07;;;12.20;99.90;;;;;;5019971;28;20029;-81
2023/05/22 02:23:23;;;;;;;10.38;6.50;;;12.20;99.90;;;;;;5021820;28;20050;-81
2023/05/22 02:25:49;;;;;;;11.00;7.03;;;12.20;99.90;;;;;;5011683;28;20050;-82
2023/05/22 02:28:15;;;;;;;9.50;6.47;;;12.20;99.90;;;;;;5021506;28;20026;-80
2023/05/22 02:30:41;;;;;;;8.68;7.45;;;12.10;99.90;;;;;;5010192;28;20023;-83
2023/05/22 02:33:08;;;;;;;10.60;6.90;;;12.20;99.90;;;;;;5016833;28;20572;-82
2023/05/22 02:35:36;;;;;;;7.88;6.57;;;12.10;99.90;;;;;;5009973;28;20034;-82
2023/05/22 02:38:02;;;;;;;7.78;6.50;;;12.10;99.90;;;;;;5015144;28;20426;-83
2023/05/22 02:40:31;;;;;;;9.90;7.28;;;12.00;99.90;;;;;;5020841;28;20070;-81
2023/05/22 02:42:59;;;;;;;11.93;7.45;;;11.80;99.90;;;;;;5017730;28;20045;-82
2023/05/22 02:45:25;;;;;;;;;;;11.60;99.90;;;;;;5026811;28;20068;-82
2023/05/22 02:48:00;;;;;;;8.98;7.03;;;11.70;99.90;;;;;;5017674;28;19913;-83
2023/05/22 02:50:26;;;;;;;7.03;5.72;;;11.60;99.90;;;;;;5017271;28;20069;-81
2023/05/22 02:52:57;;;;;;;8.23;5.95;;;11.60;99.90;;;;;;5019978;28;20030;-81
2023/05/22 02:55:23;;;;;;;10.05;7.22;;;11.70;99.90;;;;;;5021142;28;20036;-82
2023/05/22 02:57:52;;;;;;;10.27;6.95;;;11.70;99.90;;;;;;5015641;28;20093;-81
2023/05/22 03:00:21;;;;;;;11.05;7.60;;;11.70;99.90;;;;;;5021448;28;20422;-82
2023/05/22 03:02:47;;;;;;;9.68;6.95;;;11.60;99.90;;;;;;5008412;28;20128;-81
2023/05/22 03:05:16;;;;;;;10.95;7.18;;;11.40;99.90;;;;;;5028649;28;20084;-82
2023/05/22 03:07:44;;;;;;;8.35;6.90;;;11.50;99.90;;;;;;5009038;28;20061;-83
2023/05/22 03:10:10;;;;;;;9.57;6.65;;;11.50;99.90;;;;;;5016837;28;20036;-82
2023/05/22 03:12:36;;;;;;;9.85;6.43;;;11.50;99.90;;;;;;5015654;28;20038;-81
2023/05/22 03:15:02;;;;;;;9.85;7.13;;;11.20;99.90;;;;;;5009449;28;20026;-82
2023/05/22 03:17:28;;;;;;;8.25;5.72;;;11.10;99.90;;;;;;5015392;28;20038;-82
2023/05/22 03:19:54;;;;;;;6.97;5.68;;;10.90;99.90;;;;;;5017470;28;20034;-83
2023/05/22 03:22:20;;;;;;;7.05;5.50;;;10.90;99.90;;;;;;4995908;28;20049;-84
2023/05/22 03:24:45;;;;;;;7.70;6.13;;;11.00;99.90;;;;;;5019139;28;20037;-81
2023/05/22 03:27:14;;;;;;;6.65;5.38;;;10.90;99.90;;;;;;5011594;28;20600;-81
2023/05/22 03:29:40;;;;;;;5.93;4.30;;;10.80;99.90;;;;;;5015580;28;20032;-83
2023/05/22 03:32:06;;;;;;;5.50;4.88;;;10.70;99.90;;;;;;5004955;28;20094;-82
2023/05/22 03:34:34;;;;;;;7.00;5.60;;;10.60;99.90;;;;;;5011544;28;20053;-82
2023/05/22 03:37:00;;;;;;;8.68;5.55;;;10.60;99.90;;;;;;5017611;28;20029;-82
2023/05/22 03:39:32;;;;;;;6.75;4.82;;;10.60;99.90;;;;;;5011886;28;20650;-83
2023/05/22 03:42:06;;;;;;;8.73;4.95;;;10.70;99.90;;;;;;5015572;28;20466;-82
2023/05/22 03:44:34;;;;;;;8.50;5.72;;;10.80;99.90;;;;;;5018395;28;20035;-81
2023/05/22 03:47:01;;;;;;;6.70;4.72;;;10.80;99.90;;;;;;5014100;28;20064;-81
2023/05/22 03:49:26;;;;;;;6.72;5.03;;;10.80;99.90;;;;;;5014956;28;20030;-81
2023/05/22 03:51:58;;;;;;;7.25;5.18;;;10.80;99.90;;;;;;5020426;28;20139;-82
2023/05/22 03:54:24;;;;;;;7.97;5.50;;;10.80;99.90;;;;;;5009791;28;20112;-83
2023/05/22 03:56:50;;;;;;;10.27;5.90;;;10.70;99.90;;;;;;5013292;28;20038;-81
2023/05/22 03:59:15;;;;;;;9.32;6.25;;;10.80;99.90;;;;;;5006052;28;20485;-81
2023/05/22 04:01:41;;;;;;;10.35;5.70;;;10.90;99.90;;;;;;5004683;28;20030;-81
2023/05/22 04:04:08;;;;;;;9.40;6.38;;;11.00;99.90;;;;;;5004167;28;20034;-80
2023/05/22 04:06:41;;;;;;;8.93;6.38;;;11.10;99.90;;;;;;5014246;28;20295;-81
2023/05/22 04:09:11;;;;;;;10.48;6.60;;;11.00;99.90;;;;;;5007242;28;20443;-80
2023/05/22 04:11:41;;;;;;;9.60;6.60;;;11.10;99.90;;;;;;5005930;28;20041;-80
2023/05/22 04:14:07;;;;;;;8.20;6.40;;;10.90;99.90;;;;;;5004936;28;20046;-80
2023/05/22 04:16:33;;;;;;;9.27;6.80;;;10.90;99.90;;;;;;5009527;28;20045;-80
2023/05/22 04:19:02;;;;;;;7.70;6.40;;;10.90;99.90;;;;;;5005600;28;20023;-81
2023/05/22 04:21:34;;;;;;;6.00;5.30;;;11.00;99.90;;;;;;5010728;28;20037;-81
2023/05/22 04:24:05;;;;;;;6.13;5.53;;;11.00;99.90;;;;;;5013001;28;20041;-80
2023/05/22 04:26:33;;;;;;;5.50;4.88;;;11.10;99.90;;;;;;5012622;28;20478;-80
2023/05/22 04:29:00;;;;;;;6.82;5.43;;;11.10;99.90;;;;;;5011231;28;20022;-81
2023/05/22 04:31:25;;;;;;;7.60;5.90;;;11.30;99.90;;;;;;5008583;28;20077;-80
2023/05/22 04:33:53;;;;;;;8.02;5.93;;;11.30;99.90;;;;;;5008063;28;20054;-81
2023/05/22 04:36:21;;;;;;;10.77;7.72;;;11.40;99.90;;;;;;5003800;28;20033;-80
2023/05/22 04:38:49;;;;;;;10.18;7.63;;;11.50;99.90;;;;;;5021439;28;20034;-81
2023/05/22 04:41:16;;;;;;;12.75;7.50;;;11.60;99.90;;;;;;5009809;28;20038;-81
2023/05/22 04:43:43;;;;;;;13.20;8.15;;;11.70;99.90;;;;;;5012468;28;20034;-85
2023/05/22 04:46:09;;;;;;;12.05;8.20;;;11.80;99.90;;;;;;5006342;28;20042;-82
2023/05/22 04:48:35;;;;;;;10.65;7.35;;;11.90;99.90;;;;;;5008631;28;20133;-81
2023/05/22 04:51:05;;;;;;;10.82;8.05;;;11.90;99.90;;;;;;5009467;28;20034;-82
2023/05/22 04:53:33;;;;;;;10.25;7.63;;;12.00;99.90;;;;;;5006845;28;20127;-81
2023/05/22 04:55:59;;;;;;;;;;;12.10;99.90;;;;;;4999845;28;20027;-82
2023/05/22 04:58:28;;;;;;;11.90;7.07;;;12.20;99.90;;;;;;5009853;28;19920;-81
2023/05/22 05:00:56;;;;;;;15.60;7.78;;;12.20;99.90;;;;;;5014135;28;20470;-81
2023/05/22 05:03:24;;;;;;;10.23;7.65;;;12.20;99.90;;;;;;5004517;28;20097;-81
2023/05/22 05:05:50;;;;;;;13.05;8.45;;;12.40;99.90;;;;;;5023606;28;20046;-81
2023/05/22 05:08:16;;;;;;;13.68;7.88;;;12.50;99.90;;;;;;5011009;28;20042;-83
2023/05/22 05:10:42;;;;;;;12.25;8.45;;;12.40;99.90;;;;;;5004293;28;20121;-81
2023/05/22 05:13:07;;;;;;;14.00;8.80;;;12.60;99.90;;;;;;5002260;28;20040;-81
2023/05/22 05:15:33;;;;;;;14.10;9.55;;;12.70;99.90;;;;;;5006025;28;20056;-81
2023/05/22 05:17:59;;;;;;;14.27;9.57;;;12.80;99.90;;;;;;5011396;28;20029;-81
2023/05/22 05:20:29;;;;;;;15.48;9.60;;;12.90;99.90;;;;;;5013118;28;20033;-81
2023/05/22 05:22:55;;;;;;;13.20;8.68;;;12.90;99.90;;;;;;5012176;28;20042;-81
2023/05/22 05:25:21;;;;;;;14.18;9.43;;;13.00;99.90;;;;;;5017674;28;20609;-81
2023/05/22 05:27:47;;;;;;;13.95;9.95;;;13.20;99.90;;;;;;5011889;28;20371;-80
2023/05/22 05:30:18;;;;;;;14.02;10.18;;;13.30;99.90;;;;;;5008036;28;20096;-81
2023/05/22 05:32:52;;;;;;;17.05;10.77;;;13.40;99.90;;;;;;5023587;28;20058;-81
2023/05/22 05:35:20;;;;;;;16.65;10.65;;;13.50;99.90;;;;;;5012841;28;20053;-80
2023/05/22 05:37:46;;;;;;;12.68;9.85;;;13.70;99.90;;;;;;5011151;28;20042;-80
2023/05/22 05:40:12;;;;;;;15.00;10.07;;;13.80;99.90;;;;;;5024902;28;20044;-81
2023/05/22 05:42:38;;;;;;;16.05;10.73;;;14.00;99.90;;;;;;5010564;28;20030;-80
2023/05/22 05:45:04;;;;;;;15.82;10.73;;;14.10;99.90;;;;;;5011688;28;20473;-80
2023/05/22 05:47:33;;;;;;;17.98;11.02;;;14.10;99.90;;;;;;5016625;28;20034;-80
2023/05/22 05:50:02;;;;;;;16.90;10.40;;;14.20;99.90;;;;;;4996797;28;20029;-80
2023/05/22 05:52:31;;;;;;;17.70;11.57;;;14.30;99.90;;;;;;5010851;28;20405;-81
2023/05/22 05:55:00;;;;;;;17.23;11.05;;;14.40;99.90;;;;;;5010775;28;20033;-82
2023/05/22 05:57:27;;;;;;;16.20;11.05;;;14.60;99.90;;;;;;5015184;28;20107;-79
2023/05/22 05:59:55;;;;;;;15.82;10.63;;;14.70;99.90;;;;;;5013689;28;20034;-79
2023/05/22 06:02:21;;;;;;;15.38;10.38;;;14.70;99.90;;;;;;5001801;28;20042;-80
2023/05/22 06:04:48;;;;;;;17.13;11.43;;;14.80;99.90;;;;;;5007163;28;20041;-82
2023/05/22 06:07:14;;;;;;;17.95;11.43;;;14.80;99.90;;;;;;5011227;28;20038;-82
2023/05/22 06:09:40;;;;;;;15.60;10.63;;;14.90;99.90;;;;;;5012548;28;21701;-81
2023/05/22 06:12:06;;;;;;;17.63;11.45;;;15.00;99.90;;;;;;5013103;28;20022;-84
2023/05/22 06:14:32;;;;;;;17.35;11.48;;;15.00;99.90;;;;;;5013691;28;20129;-83
2023/05/22 06:16:58;;;;;;;17.73;11.63;;;15.10;99.90;;;;;;5004993;28;20573;-80
2023/05/22 06:19:26;;;;;;;16.33;11.65;;;15.10;99.90;;;;;;5015930;28;20065;-80
2023/05/22 06:21:52;;;;;;;16.35;11.77;;;15.30;99.90;;;;;;5018175;28;20790;-82
2023/05/22 06:24:18;;;;;;;17.98;11.93;;;15.40;99.90;;;;;;5012358;28;20034;-80
2023/05/22 06:26:44;;;;;;;16.52;10.80;;;15.50;99.90;;;;;;5011094;28;20098;-81
2023/05/22 06:29:12;;;;;;;17.77;11.35;;;15.60;99.90;;;;;;5012098;28;20033;-80
2023/05/22 06:31:38;;;;;;;16.55;10.57;;;15.70;99.90;;;;;;5000570;28;20061;-80
2023/05/22 06:34:07;;;;;;;14.57;10.60;;;15.90;99.90;;;;;;5011998;28;20046;-81
2023/05/22 06:36:33;;;;;;;15.00;10.80;;;16.00;99.90;;;;;;5011392;28;20506;-80
2023/05/22 06:39:00;;;;;;;15.40;10.57;;;16.20;99.90;;;;;;5019333;28;20041;-80
2023/05/22 06:41:26;;;;;;;17.80;11.13;;;16.30;99.90;;;;;;5013436;28;20030;-80
2023/05/22 06:43:51;;;;;;;17.73;10.73;;;16.40;99.90;;;;;;5006980;28;20022;-80
2023/05/22 06:46:17;;;;;;;16.05;10.52;;;16.50;99.90;;;;;;5005345;28;20404;-79
2023/05/22 06:48:53;;;;;;;16.02;10.88;;;16.60;99.90;;;;;;5003994;28;20110;-81
2023/05/22 06:51:19;;;;;;;15.55;10.68;;;16.60;99.90;;;;;;4998509;28;20045;-79
2023/05/22 06:53:45;;;;;;;14.20;10.25;;;16.70;99.90;;;;;;5014953;28;20037;-79
2023/05/22 06:56:11;;;;;;;16.58;10.30;;;16.80;99.90;;;;;;5008597;28;20039;-81
2023/05/22 06:58:41;;;;;;;14.65;10.65;;;17.00;99.90;;;;;;5006704;28;20093;-79
2023/05/22 07:01:07;;;;;;;15.77;9.98;;;17.20;99.90;;;;;;5008234;28;20152;-80
2023/05/22 07:03:33;;;;;;;16.13;10.68;;;17.30;99.90;;;;;;5007563;28;20057;-80
2023/05/22 07:06:08;;;;;;;16.15;10.05;;;17.30;99.90;;;;;;5014324;28;20049;-80
2023/05/22 07:08:34;;;;;;;15.73;10.68;;;17.60;99.90;;;;;;5006066;28;20321;-80
2023/05/22 07:11:00;;;;;;;15.93;10.40;;;17.90;99.90;;;;;;5006839;28;20018;-80
2023/05/22 07:13:35;;;;;;;17.70;10.77;;;18.00;99.90;;;;;;5009552;28;20034;-80
2023/05/22 07:16:01;;;;;;;18.77;10.75;;;18.10;99.90;;;;;;5011372;28;20103;-80
2023/05/22 07:18:27;;;;;;;17.20;10.60;;;18.20;99.90;;;;;;5007402;28;20034;-80
2023/05/22 07:20:53;;;;;;;16.70;11.23;;;18.20;99.90;;;;;;5011610;28;20034;-80
2023/05/22 07:23:28;;;;;;;17.02;11.00;;;18.10;99.90;;;;;;5008412;28;20034;-80
2023/05/22 07:25:54;;;;;;;14.52;9.95;;;18.10;99.90;;;;;;5013075;28;20045;-80
2023/05/22 07:28:23;;;;;;;15.23;11.18;;;18.00;99.90;;;;;;5016454;28;20029;-81
2023/05/22 07:30:48;;;;;;;16.40;9.45;;;18.30;99.90;;;;;;5008584;28;20041;-79
2023/05/22 07:33:17;;;;;;;19.73;10.20;;;18.40;99.90;;;;;;5004621;28;20507;-80
2023/05/22 07:35:44;;;;;;;14.80;10.70;;;18.50;99.90;;;;;;5009253;28;20065;-80
2023/05/22 07:38:10;;;;;;;15.07;10.20;;;18.60;99.90;;;;;;5005711;28;20014;-80
2023/05/22 07:40:36;;;;;;;14.20;10.32;;;18.80;99.90;;;;;;5010001;28;20413;-79
2023/05/22 07:43:01;;;;;;;15.10;10.77;;;19.00;99.90;;;;;;5012290;28;20053;-80
2023/05/22 07:45:27;;;;;;;17.02;11.23;;;19.20;99.90;;;;;;5009516;28;20604;-81
2023/05/22 07:47:57;;;;;;;17.30;10.45;;;19.00;99.90;;;;;;5011004;28;20037;-80
2023/05/22 07:50:25;;;;;;;16.83;11.00;;;19.00;99.90;;;;;;5013176;28;20025;-81
2023/05/22 07:52:51;;;;;;;16.33;10.50;;;19.30;99.90;;;;;;5014259;28;20108;-80
2023/05/22 07:55:17;;;;;;;14.88;10.45;;;19.50;99.90;;;;;;5014044;28;20064;-80
2023/05/22 07:57:43;;;;;;;16.73;10.55;;;19.60;99.90;;;;;;5011232;28;20034;-80
2023/05/22 08:00:12;;;;;;;17.15;9.95;;;19.90;99.90;;;;;;5008183;28;20031;-82
2023/05/22 08:02:39;;;;;;;14.60;9.70;;;20.10;99.90;;;;;;5014921;28;20132;-80
2023/05/22 08:05:27;;;;;;;13.90;10.43;;;20.40;99.90;;;;;;5010228;28;20038;-80
2023/05/22 08:07:52;;;;;;;14.93;10.48;;;20.40;99.90;;;;;;5009565;28;20096;-80
2023/05/22 08:10:23;;;;;;;14.52;10.32;;;20.80;99.90;;;;;;5012112;28;20026;-83
2023/05/22 08:12:49;;;;;;;12.63;9.02;;;20.70;99.90;;;;;;5002796;28;20104;-80
2023/05/22 08:15:15;;;;;;;14.18;9.55;;;20.90;99.90;;;;;;5017157;28;20482;-81
2023/05/22 08:17:46;;;;;;;13.25;9.75;;;21.30;99.90;;;;;;4999402;28;20038;-83
2023/05/22 08:20:12;;;;;;;15.02;9.80;;;21.40;99.90;;;;;;5009677;28;20030;-79
2023/05/22 08:22:40;;;;;;;17.08;10.82;;;21.70;99.90;;;;;;5010196;28;20303;-81
2023/05/22 08:25:06;;;;;;;12.82;9.30;;;21.60;99.90;;;;;;5007670;28;20036;-81
2023/05/22 08:27:31;;;;;;;13.85;9.93;;;21.90;99.90;;;;;;5008853;28;20117;-81
2023/05/22 08:29:57;;;;;;;18.85;13.30;;;22.10;99.90;;;;;;5011943;28;20038;-82
2023/05/22 08:32:34;;;;;;;13.45;10.10;;;22.10;99.90;;;;;;5001190;28;20042;-80
2023/05/22 08:35:00;;;;;;;13.93;9.93;;;22.40;99.90;;;;;;5012483;28;20497;-82
2023/05/22 08:37:25;;;;;;;13.63;10.25;;;22.30;99.90;;;;;;5004741;28;20043;-82
2023/05/22 08:39:52;;;;;;;15.55;10.30;;;22.10;99.90;;;;;;5011629;28;20040;-81
2023/05/22 08:42:23;;;;;;;14.95;9.98;;;22.10;99.90;;;;;;5005694;28;20135;-81
2023/05/22 08:44:49;;;;;;;17.30;10.75;;;22.30;99.90;;;;;;5011919;28;20497;-81
2023/05/22 08:47:22;;;;;;;13.13;10.02;;;22.50;99.90;;;;;;5009501;28;20092;-80
2023/05/22 08:49:56;;;;;;;12.93;9.52;;;22.80;99.90;;;;;;5009622;28;20041;-81
2023/05/22 08:52:29;;;;;;;13.70;10.00;;;22.70;99.90;;;;;;5007766;28;20102;-81
2023/05/22 08:54:55;;;;;;;12.73;9.30;;;22.50;99.90;;;;;;5005578;28;20069;-82
2023/05/22 08:57:32;;;;;;;10.95;8.98;;;22.60;99.90;;;;;;5013514;28;21966;-81
2023/05/22 08:59:57;;;;;;;11.70;9.20;;;23.10;99.90;;;;;;5004799;28;20046;-81
2023/05/22 09:02:27;;;;;;;12.00;9.43;;;22.90;99.90;;;;;;5008456;28;20498;-81
2023/05/22 09:04:53;;;;;;;12.00;8.95;;;22.80;99.90;;;;;;5009507;28;20100;-81
2023/05/22 09:07:26;;;;;;;12.25;9.20;;;22.90;99.90;;;;;;5019873;28;20046;-81
2023/05/22 09:09:52;;;;;;;13.38;9.95;;;23.40;99.90;;;;;;5012926;28;20034;-81
2023/05/22 09:12:18;;;;;;;11.57;9.77;;;23.80;99.90;;;;;;5015454;28;20610;-81
2023/05/22 09:14:44;;;;;;;11.98;9.25;;;23.90;99.90;;;;;;5009151;28;20030;-81
2023/05/22 09:17:13;;;;;;;11.85;9.27;;;23.20;99.90;;;;;;5011532;28;20459;-80
2023/05/22 09:19:46;;;;;;;12.40;9.30;;;23.10;99.90;;;;;;5008827;28;20033;-82
2023/05/22 09:22:17;;;;;;;12.98;9.27;;;23.70;99.90;;;;;;5014661;28;20030;-82
2023/05/22 09:24:46;;;;;;;12.18;9.07;;;23.80;99.90;;;;;;5016623;28;20061;-81
2023/05/22 09:27:17;;;;;;;12.65;8.63;;;24.10;99.90;;;;;;5010637;28;20032;-81
2023/05/22 09:29:52;;;;;;;10.38;8.38;;;23.60;99.90;;;;;;5007265;28;20045;-83
2023/05/22 09:32:18;;;;;;;11.93;9.35;;;23.70;99.90;;;;;;5005537;28;20054;-81
2023/05/22 09:34:45;;;;;;;11.20;8.10;;;24.00;99.90;;;;;;5019506;28;20030;-82
2023/05/22 09:37:13;;;;;;;10.10;7.50;;;23.80;99.90;;;;;;5020492;28;20033;-81
2023/05/22 09:39:46;;;;;;;12.30;8.02;;;24.10;99.90;;;;;;5017363;28;20050;-84
2023/05/22 09:42:15;;;;;;;10.85;7.80;;;24.00;99.90;;;;;;5012967;28;20026;-83
2023/05/22 09:44:43;;;;;;;9.98;8.02;;;24.00;99.90;;;;;;5014140;28;20031;-83
2023/05/22 09:47:10;;;;;;;10.70;8.40;;;23.90;99.90;;;;;;5010488;28;20024;-83
2023/05/22 09:49:45;;;;;;;12.23;8.43;;;24.50;99.90;;;;;;5011129;28;20030;-82
2023/05/22 09:52:11;;;;;;;13.73;8.55;;;24.70;99.90;;;;;;5011156;28;20030;-83
2023/05/22 09:54:58;;;;;;;10.77;8.15;;;24.40;99.90;;;;;;5008791;28;20120;-82
2023/05/22 09:57:32;;;;;;;14.23;9.63;;;24.80;99.90;;;;;;5012899;28;20026;-82
2023/05/22 10:00:08;;;;;;;11.63;8.93;;;24.20;99.90;;;;;;5006525;28;20552;-82
2023/05/22 10:02:37;;;;;;;10.63;8.35;;;24.50;99.90;;;;;;5020823;28;20076;-84
2023/05/22 10:05:26;;;;;;;11.32;8.75;;;24.60;99.90;;;;;;5009047;28;20065;-82
2023/05/22 10:07:55;;;;;;;9.23;7.82;;;24.60;99.90;;;;;;5007819;28;20030;-85
2023/05/22 10:10:23;;;;;;;12.70;8.77;;;24.90;99.90;;;;;;5012542;28;20113;-83
2023/05/22 10:13:02;;;;;;;11.23;8.05;;;25.00;99.90;;;;;;5011526;28;20027;-82
2023/05/22 10:15:28;;;;;;;13.05;8.85;;;25.10;99.90;;;;;;5006551;28;20045;-82
2023/05/22 10:17:55;;;;;;;11.45;8.45;;;25.00;99.90;;;;;;5014044;28;20037;-83
2023/05/22 10:20:21;;;;;;;11.35;7.70;;;25.00;99.90;;;;;;5004920;28;20118;-81
2023/05/22 10:22:49;;;;;;;9.40;7.40;;;25.10;99.90;;;;;;5012730;28;20523;-82
2023/05/22 10:25:20;;;;;;;8.85;7.35;;;25.20;99.90;;;;;;5008599;28;20041;-82
2023/05/22 10:27:50;;;;;;;9.20;7.55;;;25.30;99.90;;;;;;5013065;28;20025;-81
2023/05/22 10:30:41;;;;;;;8.95;7.30;;;25.40;99.90;;;;;;5012641;28;20034;-83
2023/05/22 10:33:23;;;;;;;9.02;7.07;;;25.30;99.90;;;;;;5009579;28;20481;-83
2023/05/22 10:36:01;;;;;;;10.23;6.57;;;25.10;99.90;;;;;;5012792;28;20490;-84
2023/05/22 10:38:29;;;;;;;8.45;7.30;;;25.20;99.90;;;;;;5008481;28;20044;-83
2023/05/22 10:41:02;;;;;;;8.90;6.60;;;25.50;99.90;;;;;;5007362;28;20058;-82
2023/05/22 10:43:37;;;;;;;11.68;6.95;;;25.70;99.90;;;;;;5009444;28;20068;-82
2023/05/22 10:46:05;;;;;;;8.55;7.45;;;26.10;99.90;;;;;;5009553;28;20034;-84
2023/05/22 10:48:44;;;;;;;9.13;7.05;;;26.10;99.90;;;;;;5009406;28;20117;-82
2023/05/22 10:51:16;;;;;;;10.35;7.68;;;26.00;99.90;;;;;;5011285;28;20394;-83
2023/05/22 10:53:59;;;;;;;9.90;7.55;;;26.10;99.90;;;;;;5008775;28;20033;-82
2023/05/22 10:56:34;;;;;;;10.00;7.57;;;26.30;99.90;;;;;;5006114;28;20041;-83
2023/05/22 10:59:03;;;;;;;8.85;6.88;;;26.70;99.90;;;;;;5011972;28;20037;-85
2023/05/22 11:01:29;;;;;;;8.55;7.25;;;26.70;99.90;;;;;;5011249;28;20062;-82
2023/05/22 11:04:10;;;;;;;9.52;7.72;;;26.50;99.90;;;;;;5010243;28;20081;-83
2023/05/22 11:06:40;;;;;;;10.18;7.32;;;26.50;99.90;;;;;;5011927;28;20083;-85
2023/05/22 11:09:28;;;;;;;9.55;7.28;;;26.70;99.90;;;;;;5011019;28;20377;-82
2023/05/22 11:12:16;;;;;;;8.93;7.38;;;26.90;99.90;;;;;;5009204;28;20064;-81
2023/05/22 11:14:55;;;;;;;8.60;6.63;;;26.40;99.90;;;;;;5008424;28;20025;-80
2023/05/22 11:17:22;;;;;;;7.57;6.68;;;26.70;99.90;;;;;;5015639;28;20035;-81
2023/05/22 11:20:06;;;;;;;;;;;26.60;99.90;;;;;;5027774;28;20029;-81
2023/05/22 11:22:42;;;;;;;8.00;6.38;;;26.60;99.90;;;;;;5007273;28;20309;-83
2023/05/22 11:25:16;;;;;;;9.15;6.32;;;26.70;99.90;;;;;;5010165;28;20080;-82
2023/05/22 11:27:43;;;;;;;7.80;6.95;;;26.90;99.90;;;;;;5008342;28;20077;-81
2023/05/22 11:30:10;;;;;;;7.53;6.63;;;26.90;99.90;;;;;;5010522;28;20034;-83
2023/05/22 11:32:37;;;;;;;9.70;6.90;;;26.90;99.90;;;;;;5011546;28;20062;-81
2023/05/22 11:35:04;;;;;;;9.20;7.03;;;26.90;99.90;;;;;;5011791;28;20034;-81
2023/05/22 11:37:36;;;;;;;8.50;6.50;;;27.10;99.90;;;;;;5021161;28;20084;-82
2023/05/22 11:40:04;;;;;;;7.82;6.80;;;27.30;99.90;;;;;;5007157;28;20022;-83
2023/05/22 11:42:30;;;;;;;8.55;6.78;;;27.00;99.90;;;;;;5009903;28;20108;-82
2023/05/22 11:45:00;;;;;;;9.02;7.55;;;27.40;99.90;;;;;;5012246;28;20104;-84
2023/05/22 11:47:31;;;;;;;7.63;6.78;;;27.40;99.90;;;;;;5004614;28;20398;-83
2023/05/22 11:49:58;;;;;;;9.93;7.60;;;27.40;99.90;;;;;;5011982;28;20011;-84
2023/05/22 11:52:24;;;;;;;12.27;8.55;;;27.50;99.90;;;;;;5013772;28;20117;-83
2023/05/22 11:54:53;;;;;;;12.13;8.07;;;27.00;99.90;;;;;;5013386;28;20029;-83
2023/05/22 11:57:21;;;;;;;9.93;8.43;;;26.20;99.90;;;;;;5009077;28;20056;-82
2023/05/22 11:59:47;;;;;;;10.55;8.30;;;26.00;99.90;;;;;;5010888;28;20022;-83
2023/05/22 12:02:13;;;;;;;11.30;8.52;;;25.80;99.90;;;;;;5008184;28;20097;-83
2023/05/22 12:04:39;;;;;;;9.45;8.32;;;25.70;99.90;;;;;;5018409;28;20470;-83
2023/05/22 12:07:05;;;;;;;11.48;9.55;;;26.20;99.90;;;;;;5007598;28;20030;-83
2023/05/22 12:09:31;;;;;;;10.40;9.25;;;25.90;99.90;;;;;;5014938;28;20040;-82
2023/05/22 12:11:57;;;;;;;10.45;8.80;;;25.70;99.90;;;;;;5011018;28;20022;-83
2023/05/22 12:14:27;;;;;;;10.15;8.93;;;25.80;99.90;;;;;;5012962;28;20042;-82
2023/05/22 12:16:54;;;;;;;10.52;9.35;;;26.20;99.90;;;;;;5010251;28;20069;-82
2023/05/22 12:19:20;;;;;;;13.00;9.10;;;26.00;99.90;;;;;;5014358;28;20109;-83
2023/05/22 12:21:49;;;;;;;10.68;8.88;;;25.90;99.90;;;;;;5007822;28;20033;-82
2023/05/22 12:24:14;;;;;;;10.07;9.00;;;25.70;99.90;;;;;;5014028;28;20074;-82
2023/05/22 12:26:47;;;;;;;10.50;9.32;;;25.90;99.90;;;;;;5005966;28;20398;-81
2023/05/22 12:29:13;;;;;;;11.18;9.05;;;25.90;99.90;;;;;;5011710;28;20050;-82
2023/05/22 12:31:39;;;;;;;10.38;8.65;;;25.70;99.90;;;;;;5003566;28;20106;-83
2023/05/22 12:34:07;;;;;;;9.65;8.52;;;25.70;99.90;;;;;;5017805;28;20062;-82
2023/05/22 12:36:40;;;;;;;10.10;8.10;;;26.20;99.90;;;;;;5013700;28;20018;-83
2023/05/22 12:39:15;;;;;;;11.65;8.27;;;26.10;99.90;;;;;;5016190;28;20090;-86
2023/05/22 12:41:44;;;;;;;9.45;7.70;;;25.90;99.90;;;;;;5016337;28;20050;-86
2023/05/22 12:44:10;;;;;;;9.27;8.27;;;25.80;99.90;;;;;;5016169;28;20041;-88
2023/05/22 12:46:36;;;;;;;10.23;8.70;;;25.70;99.90;;;;;;5016841;28;20006;-87
2023/05/22 12:49:02;;;;;;;10.95;8.75;;;25.80;99.90;;;;;;5016875;28;20033;-85
2023/05/22 12:51:43;;;;;;;10.30;7.22;;;26.00;99.90;;;;;;5018776;28;20060;-86